createdAt,value
2023-06-12T00:01:37.607Z,99981.69
2023-06-12T00:06:39.565Z,99980.25
2023-06-12T00:11:41.689Z,99980.50
2023-06-12T00:16:43.349Z,99984.94
2023-06-12T00:21:45.191Z,99981.31
2023-06-12T00:26:46.755Z,99989.56
2023-06-12T00:31:48.350Z,99993.66
2023-06-12T00:36:51.321Z,100002.44
2023-06-12T00:41:52.997Z,99984.50
2023-06-12T00:46:56.550Z,99987.25
2023-06-12T00:51:58.418Z,99989.84
2023-06-12T00:57:00.044Z,99980.56
2023-06-12T01:02:04.404Z,99982.44
2023-06-12T01:07:21.664Z,99983.13
2023-06-12T01:12:25.882Z,99970.06
2023-06-12T01:17:28.753Z,99969.03
2023-06-12T01:22:34.160Z,99967.38
2023-06-12T01:28:05.501Z,99973.41
2023-06-12T01:33:10.971Z,99970.81
2023-06-12T01:38:21.765Z,99963.94
2023-06-12T01:43:25.391Z,99961.56
2023-06-12T01:48:27.961Z,99965.72
2023-06-12T01:53:31.057Z,99957.63
2023-06-12T01:58:32.723Z,99968.56
2023-06-12T02:03:47.041Z,99968.50
2023-06-12T02:08:49.298Z,99963.22
2023-06-12T02:13:50.914Z,99970.88
2023-06-12T02:18:52.676Z,99969.13
2023-06-12T02:23:54.689Z,99969.59
2023-06-12T02:29:14.048Z,99975.59
2023-06-12T02:34:19.777Z,99986.66
2023-06-12T02:39:21.442Z,99987.00
2023-06-12T02:44:24.112Z,99983.94
2023-06-12T02:49:29.539Z,99992.81
2023-06-12T02:54:33.209Z,99984.00
2023-06-12T02:59:36.712Z,99997.81
2023-06-12T03:04:46.100Z,100000.09
2023-06-12T03:09:48.562Z,100003.44
2023-06-12T03:14:52.090Z,100003.59
2023-06-12T03:19:53.812Z,100012.97
2023-06-12T03:24:55.406Z,100015.41
2023-06-12T03:29:57.420Z,100037.41
2023-06-12T03:34:59.910Z,100036.31
2023-06-12T03:40:02.311Z,100039.84
2023-06-12T03:45:07.147Z,100052.56
2023-06-12T03:50:11.373Z,100056.03
2023-06-12T03:55:13.264Z,100065.06
2023-06-12T04:00:15.828Z,100064.34
2023-06-12T04:05:21.936Z,100073.72
2023-06-12T04:10:23.958Z,100079.47
2023-06-12T04:15:25.571Z,100080.59
2023-06-12T04:20:27.731Z,100089.38
2023-06-12T04:25:31.494Z,100085.41
2023-06-12T04:30:34.437Z,100074.69
2023-06-12T04:35:36.949Z,100074.66
2023-06-12T04:40:38.630Z,100087.38
2023-06-12T04:45:45.417Z,100074.91
2023-06-12T04:50:52.299Z,100079.56
2023-06-12T04:55:55.327Z,100072.91
2023-06-12T05:01:01.419Z,100078.66
2023-06-12T05:06:03.971Z,100065.84
2023-06-12T05:11:06.153Z,100067.94
2023-06-12T05:16:08.997Z,100079.19
2023-06-12T05:21:12.081Z,100079.69
2023-06-12T05:26:14.511Z,100092.94
2023-06-12T05:31:17.684Z,100089.41
2023-06-12T05:36:21.089Z,100104.16
2023-06-12T05:41:26.701Z,100109.47
2023-06-12T05:46:28.822Z,100100.78
2023-06-12T05:51:31.194Z,100091.75
2023-06-12T05:56:33.218Z,100103.22
2023-06-12T06:01:36.678Z,100101.19
2023-06-12T06:06:39.692Z,100112.84
2023-06-12T06:11:44.650Z,100097.78
2023-06-12T06:16:55.069Z,100111.75
2023-06-12T06:22:00.527Z,100105.28
2023-06-12T06:27:03.880Z,100105.38
2023-06-12T06:32:08.705Z,100110.84
2023-06-12T06:37:11.505Z,100110.88
2023-06-12T06:42:13.594Z,100117.63
2023-06-12T06:47:38.285Z,100127.59
2023-06-12T06:52:42.404Z,100122.06
2023-06-12T06:57:45.938Z,100116.66
2023-06-12T07:02:52.501Z,100117.63
2023-06-12T07:08:01.836Z,100107.69
2023-06-12T07:13:08.636Z,100113.81
2023-06-12T07:18:19.893Z,100103.66
2023-06-12T07:23:21.598Z,100098.47
2023-06-12T07:28:26.085Z,100106.75
2023-06-12T07:33:27.701Z,100101.47
2023-06-12T07:38:29.593Z,100094.69
2023-06-12T07:43:35.353Z,100101.28
2023-06-12T07:48:36.989Z,100112.84
2023-06-12T07:53:39.671Z,100093.22
2023-06-12T07:58:49.192Z,100106.91
2023-06-12T08:03:51.693Z,100094.53
2023-06-12T08:08:54.825Z,100094.69
2023-06-12T08:13:56.769Z,100097.16
2023-06-12T08:19:02.550Z,100090.75
2023-06-12T08:24:11.649Z,100093.38
2023-06-12T08:29:14.070Z,100096.31
2023-06-12T08:34:16.984Z,100092.47
2023-06-12T08:39:19.035Z,100086.00
2023-06-12T08:44:24.835Z,100083.03
2023-06-12T08:49:27.828Z,100082.75
2023-06-12T08:54:30.306Z,100085.25
2023-06-12T08:59:31.919Z,100076.19
2023-06-12T09:04:56.240Z,100071.75
2023-06-12T09:10:08.625Z,100076.44
2023-06-12T09:15:19.988Z,100072.25
2023-06-12T09:20:42.478Z,100080.09
2023-06-12T09:26:05.354Z,100087.56
2023-06-12T09:31:07.734Z,100075.78
2023-06-12T09:36:12.625Z,100070.34
2023-06-12T09:41:14.400Z,100064.38
2023-06-12T09:46:18.141Z,100069.94
2023-06-12T09:51:21.319Z,100063.00
2023-06-12T09:56:24.868Z,100067.16
2023-06-12T10:01:27.849Z,100069.25
2023-06-12T10:06:32.336Z,100074.81
2023-06-12T10:11:38.070Z,100043.47
2023-06-12T10:16:51.204Z,100066.97
2023-06-12T10:21:54.743Z,100059.03
2023-06-12T10:26:58.088Z,100057.75
2023-06-12T10:32:10.682Z,100057.38
2023-06-12T10:37:24.758Z,100048.16
2023-06-12T10:42:44.680Z,100021.94
2023-06-12T10:48:07.688Z,100050.06
2023-06-12T10:53:20.303Z,100035.81
2023-06-12T10:58:26.671Z,100018.34
2023-06-12T11:03:31.009Z,100017.16
2023-06-12T11:08:32.923Z,100013.72
2023-06-12T11:13:34.624Z,100015.25
2023-06-12T11:18:36.430Z,100007.06
2023-06-12T11:23:43.807Z,100001.81
2023-06-12T11:28:50.568Z,99995.22
2023-06-12T11:33:59.740Z,100003.66
2023-06-12T11:44:26.701Z,99993.13
2023-06-12T11:49:32.362Z,99988.56
2023-06-12T12:00:09.923Z,99980.81
2023-06-12T12:05:13.172Z,99986.19
2023-06-12T12:10:20.197Z,99976.94
2023-06-12T12:15:22.399Z,99970.16
2023-06-12T12:20:26.531Z,99984.94
2023-06-12T12:25:33.625Z,99975.53
2023-06-12T12:30:35.395Z,99973.53
2023-06-12T12:35:37.072Z,99960.06
2023-06-12T12:40:38.671Z,99969.13
2023-06-12T12:45:40.293Z,99952.09
2023-06-12T12:50:56.626Z,99944.13
2023-06-12T12:56:04.180Z,99946.81
2023-06-12T13:01:08.088Z,99940.22
2023-06-12T13:06:21.052Z,99939.97
2023-06-12T13:11:22.627Z,99932.63
2023-06-12T13:16:24.241Z,99918.56
2023-06-12T13:21:26.014Z,99924.44
2023-06-12T13:26:27.735Z,99928.84
2023-06-12T13:31:30.213Z,99916.31
2023-06-12T13:36:32.670Z,99921.56
2023-06-12T13:41:34.285Z,99921.38
2023-06-12T13:46:37.597Z,99931.22
2023-06-12T13:51:39.506Z,99917.25
2023-06-12T13:56:41.193Z,99911.97
2023-06-12T14:01:43.459Z,99902.56
2023-06-12T14:06:45.112Z,99911.25
2023-06-12T14:11:46.693Z,99900.91
2023-06-12T14:16:48.857Z,99891.09
2023-06-12T14:21:50.503Z,99893.78
2023-06-12T14:26:52.062Z,99891.06
2023-06-12T14:31:53.839Z,99882.75
2023-06-12T14:36:55.664Z,99877.72
2023-06-12T14:41:57.265Z,99870.41
2023-06-12T14:46:58.970Z,99866.16
2023-06-12T14:52:00.621Z,99853.28
2023-06-12T14:57:02.335Z,99857.91
2023-06-12T15:02:04.085Z,99856.06
2023-06-12T15:07:05.768Z,99851.81
2023-06-12T15:12:07.852Z,99844.69
2023-06-12T15:17:09.531Z,99835.44
2023-06-12T15:22:11.183Z,99842.28
2023-06-12T15:27:12.743Z,99849.06
2023-06-12T15:32:14.270Z,99829.56
2023-06-12T15:37:19.365Z,99825.44
2023-06-12T15:42:21.199Z,99834.28
2023-06-12T15:47:23.038Z,99831.81
2023-06-12T15:52:24.718Z,99816.72
2023-06-12T15:57:26.358Z,99813.13
2023-06-12T16:02:30.684Z,99822.81
2023-06-12T16:07:32.447Z,99836.88
2023-06-12T16:12:34.003Z,99804.03
2023-06-12T16:17:35.615Z,99816.00
2023-06-12T16:22:37.279Z,99815.44
2023-06-12T16:27:38.955Z,99810.78
2023-06-12T16:32:44.072Z,99788.50
2023-06-12T16:37:46.116Z,99785.84
2023-06-12T16:42:47.758Z,99802.25
2023-06-12T16:47:49.392Z,99792.56
2023-06-12T16:52:51.012Z,99797.03
2023-06-12T16:57:52.713Z,99804.06
2023-06-12T17:02:54.509Z,99803.22
2023-06-12T17:07:56.161Z,99794.69
2023-06-12T17:12:57.734Z,99792.91
2023-06-12T17:17:59.340Z,99792.31
2023-06-12T17:23:01.984Z,99782.47
2023-06-12T17:28:05.020Z,99774.19
2023-06-12T17:33:07.856Z,99789.28
2023-06-12T17:38:09.538Z,99786.38
2023-06-12T17:43:11.148Z,99789.28
2023-06-12T17:48:12.826Z,99803.09
2023-06-12T17:53:14.554Z,99793.94
2023-06-12T17:58:16.127Z,99793.44
2023-06-12T18:03:17.799Z,99794.22
2023-06-12T18:08:19.533Z,99788.69
2023-06-12T18:13:21.085Z,99785.88
2023-06-12T18:18:22.988Z,99793.44
2023-06-12T18:23:25.432Z,99786.75
2023-06-12T18:28:29.681Z,99782.88
2023-06-12T18:33:31.241Z,99781.31
2023-06-12T18:38:32.944Z,99775.50
2023-06-12T18:43:34.551Z,99786.88
2023-06-12T18:48:36.379Z,99795.19
2023-06-12T18:53:37.945Z,99802.19
2023-06-12T18:58:39.737Z,99795.44
2023-06-12T19:03:41.350Z,99802.44
2023-06-12T19:08:42.980Z,99813.97
2023-06-12T19:13:44.699Z,99828.16
2023-06-12T19:18:46.431Z,99825.56
2023-06-12T19:23:48.738Z,99830.16
2023-06-12T19:28:52.783Z,99812.84
2023-06-12T19:33:55.061Z,99826.28
2023-06-12T19:38:56.743Z,99825.56
2023-06-12T19:43:58.285Z,99830.00
2023-06-12T19:48:59.846Z,99841.59
2023-06-12T19:54:01.389Z,99841.16
2023-06-12T19:59:03.363Z,99850.00
2023-06-12T20:04:04.961Z,99846.16
2023-06-12T20:09:06.587Z,99850.94
2023-06-12T20:14:08.167Z,99850.88
2023-06-12T20:19:09.720Z,99855.50
2023-06-12T20:24:11.513Z,99846.66
2023-06-12T20:29:13.190Z,99841.13
2023-06-12T20:34:14.902Z,99841.41
2023-06-12T20:39:16.483Z,99849.75
2023-06-12T20:44:18.052Z,99851.81
2023-06-12T20:49:19.808Z,99851.47
2023-06-12T20:54:21.352Z,99855.25
2023-06-12T20:59:22.906Z,99853.41
2023-06-12T21:04:24.481Z,99855.47
2023-06-12T21:09:30.664Z,99847.84
2023-06-12T21:14:32.357Z,99854.97
2023-06-12T21:19:38.462Z,99849.59
2023-06-12T21:24:40.015Z,99852.97
2023-06-12T21:29:41.649Z,99852.44
2023-06-12T21:34:43.203Z,99844.28
2023-06-12T21:39:44.890Z,99843.50
2023-06-12T21:44:46.441Z,99854.28
2023-06-12T21:49:48.085Z,99858.69
2023-06-12T21:54:49.712Z,99851.53
2023-06-12T21:59:51.312Z,99864.63
2023-06-12T22:04:53.033Z,99865.06
2023-06-12T22:09:54.958Z,99847.28
2023-06-12T22:14:56.780Z,99854.88
2023-06-12T22:19:58.570Z,99841.66
2023-06-12T22:25:00.195Z,99852.81
2023-06-12T22:30:01.784Z,99852.72
2023-06-12T22:35:03.750Z,99848.16
2023-06-12T22:40:08.636Z,99844.53
2023-06-12T22:45:11.796Z,99835.28
2023-06-12T22:50:13.645Z,99834.66
2023-06-12T22:55:15.688Z,99831.94
2023-06-12T23:00:17.878Z,99833.66
2023-06-12T23:05:19.792Z,99835.00
2023-06-12T23:10:21.688Z,99830.34
2023-06-12T23:15:23.294Z,99831.53
2023-06-12T23:20:27.787Z,99829.44
2023-06-12T23:25:29.958Z,99827.75
2023-06-12T23:30:31.556Z,99821.63
2023-06-12T23:35:33.152Z,99839.91
2023-06-12T23:40:34.959Z,99825.97
2023-06-12T23:45:36.539Z,99827.22
2023-06-12T23:50:38.450Z,99821.69
2023-06-12T23:55:40.013Z,99822.84
